Time;durP1;ratioP1;P1;durP2;ratioP2;P2;SDS_P1;SDS_P2;PMS_P1;PMS_P2;Temp;Humidity;BMP_temperature;BMP_pressure;BME280_temperature;BME280_humidity;BME280_pressure;Samples;Min_cycle;Max_cycle;Signal;HPM_P1;HPM_P2
2023/10/19 00:01:10;;;;;;;2.33;1.50;;;10.30;99.90;;;;;;4930248;29;20130;-91
2023/10/19 00:03:36;;;;;;;2.28;1.35;;;10.30;99.90;;;;;;4911053;29;20046;-90
2023/10/19 00:06:02;;;;;;;1.65;0.85;;;10.40;99.90;;;;;;4930531;29;20027;-93
2023/10/19 00:08:40;;;;;;;1.85;1.33;;;10.40;99.90;;;;;;4919198;29;20034;-93
2023/10/19 00:11:10;;;;;;;2.88;1.75;;;10.50;99.90;;;;;;4910008;29;20080;-92
2023/10/19 00:13:38;;;;;;;3.67;2.53;;;10.50;99.90;;;;;;4927791;29;20151;-91
2023/10/19 00:16:12;;;;;;;3.08;2.03;;;10.60;99.90;;;;;;4913446;29;20043;-92
2023/10/19 00:18:42;;;;;;;3.53;2.33;;;10.60;99.90;;;;;;4930606;29;20035;-92
2023/10/19 00:21:19;;;;;;;;;;;10.60;99.90;;;;;;4927230;29;20043;-90
2023/10/19 00:23:49;;;;;;;3.55;3.13;;;10.60;99.90;;;;;;4910523;29;19919;-91
2023/10/19 00:26:17;;;;;;;5.18;2.80;;;10.60;99.90;;;;;;4912246;29;20040;-91
2023/10/19 00:28:57;;;;;;;2.60;1.75;;;10.60;99.90;;;;;;4913250;29;20044;-92
2023/10/19 00:31:27;;;;;;;3.03;2.05;;;10.60;99.90;;;;;;4924526;29;20643;-91
2023/10/19 00:33:56;;;;;;;3.15;2.03;;;10.70;99.90;;;;;;4927729;29;20063;-93
2023/10/19 00:36:23;;;;;;;3.63;2.33;;;10.70;99.90;;;;;;4927221;29;20034;-89
2023/10/19 00:41:22;;;;;;;4.32;2.80;;;10.80;99.90;;;;;;4927027;29;20066;-92
2023/10/19 00:43:57;;;;;;;2.72;1.88;;;10.80;99.90;;;;;;4893524;29;20073;-89
2023/10/19 00:46:26;;;;;;;3.33;2.20;;;10.80;99.90;;;;;;4926591;29;20032;-92
2023/10/19 00:48:59;;;;;;;2.80;1.85;;;10.80;99.90;;;;;;4911307;29;20115;-93
2023/10/19 00:54:50;;;;;;;3.53;2.00;;;10.90;99.90;;;;;;4923699;29;20046;-92
2023/10/19 00:57:32;;;;;;;2.92;1.40;;;10.90;99.90;;;;;;4926205;29;20043;-90
2023/10/19 01:00:29;;;;;;;2.53;1.55;;;10.90;99.90;;;;;;4924980;29;20212;-87
2023/10/19 01:02:47;;;;;;;3.55;2.13;;;11.00;99.90;;;;;;4909509;29;20027;-88
2023/10/19 01:05:13;;;;;;;3.03;2.22;;;11.00;99.90;;;;;;4926490;29;20028;-86
2023/10/19 01:07:40;;;;;;;2.25;1.42;;;11.00;99.90;;;;;;4927757;29;20064;-85
2023/10/19 01:10:08;;;;;;;3.53;1.88;;;11.00;99.90;;;;;;4909349;29;20114;-85
2023/10/19 01:12:38;;;;;;;4.60;1.90;;;11.10;99.90;;;;;;4926892;29;20049;-92
2023/10/19 01:15:16;;;;;;;3.45;2.85;;;11.10;99.90;;;;;;4924471;29;20824;-85
2023/10/19 01:17:45;;;;;;;3.22;2.13;;;11.10;99.90;;;;;;4911296;29;20024;-89
2023/10/19 01:20:47;;;;;;;3.63;2.20;;;11.20;99.90;;;;;;4925291;29;20046;-88
2023/10/19 01:25:58;;;;;;;4.63;2.33;;;11.30;99.90;;;;;;4924409;29;20489;-87
2023/10/19 01:28:42;;;;;;;2.58;1.80;;;11.30;99.90;;;;;;4925454;29;20381;-91
2023/10/19 01:33:55;;;;;;;2.95;1.80;;;11.30;99.90;;;;;;4927473;29;20020;-87
2023/10/19 01:38:48;;;;;;;3.42;1.63;;;11.40;99.90;;;;;;4926854;29;20043;-87
2023/10/19 01:41:18;;;;;;;3.70;1.73;;;11.30;99.90;;;;;;4925611;29;20047;-87
2023/10/19 01:43:45;;;;;;;2.22;1.70;;;11.30;99.90;;;;;;4928319;29;20043;-87
2023/10/19 01:46:12;;;;;;;3.85;2.13;;;11.30;99.90;;;;;;4925765;29;20396;-88
2023/10/19 01:48:43;;;;;;;2.80;2.08;;;11.30;99.90;;;;;;4926390;29;20043;-87
2023/10/19 01:51:10;;;;;;;2.40;1.42;;;11.30;99.90;;;;;;4925959;29;20036;-88
2023/10/19 01:53:43;;;;;;;3.25;1.50;;;11.30;99.90;;;;;;4897114;29;20455;-88
2023/10/19 01:56:10;;;;;;;2.90;1.40;;;11.30;99.90;;;;;;4932138;29;20032;-89
2023/10/19 01:58:40;;;;;;;2.90;1.95;;;11.40;99.90;;;;;;4929754;29;20127;-87
2023/10/19 02:03:42;;;;;;;2.90;1.73;;;11.40;99.90;;;;;;4928671;29;19917;-88
2023/10/19 02:06:21;;;;;;;4.38;1.63;;;11.40;99.90;;;;;;4940454;29;20080;-89
2023/10/19 02:08:56;;;;;;;3.07;1.70;;;11.50;99.90;;;;;;4911729;29;20519;-89
2023/10/19 02:11:23;;;;;;;2.63;1.33;;;11.50;99.90;;;;;;4928797;29;20563;-87
2023/10/19 02:13:51;;;;;;;2.58;1.40;;;11.50;99.90;;;;;;4902974;29;20032;-88
2023/10/19 02:16:21;;;;;;;3.10;1.50;;;11.60;99.90;;;;;;4913057;29;20031;-87
2023/10/19 02:18:48;;;;;;;2.90;1.67;;;11.60;99.90;;;;;;4931295;29;20027;-88
2023/10/19 02:21:14;;;;;;;2.67;1.30;;;11.50;99.90;;;;;;4931241;29;20035;-88
2023/10/19 02:23:44;;;;;;;4.15;1.85;;;11.60;99.90;;;;;;4939080;29;20027;-87
2023/10/19 02:26:13;;;;;;;3.00;1.42;;;11.60;99.90;;;;;;4926598;29;20028;-87
2023/10/19 02:28:39;;;;;;;3.00;1.53;;;11.60;99.90;;;;;;4912850;29;20359;-87
2023/10/19 02:31:18;;;;;;;3.03;2.20;;;11.60;99.90;;;;;;4916543;29;20027;-86
2023/10/19 02:33:51;;;;;;;3.30;2.65;;;11.60;99.90;;;;;;4927756;29;20031;-88
2023/10/19 02:36:22;;;;;;;3.78;1.73;;;11.70;99.90;;;;;;4928849;29;20118;-91
2023/10/19 02:38:51;;;;;;;5.28;4.60;;;11.70;99.90;;;;;;4920791;29;20555;-91
2023/10/19 02:41:21;;;;;;;4.85;3.30;;;11.80;99.90;;;;;;4928282;29;20118;-90
2023/10/19 02:43:51;;;;;;;3.45;2.67;;;11.70;99.90;;;;;;4926651;29;20036;-90
2023/10/19 02:46:17;;;;;;;4.20;2.13;;;11.70;99.90;;;;;;4922971;29;20493;-89
2023/10/19 02:48:49;;;;;;;3.97;2.17;;;11.70;99.90;;;;;;4914237;29;20032;-90
2023/10/19 02:51:15;;;;;;;3.15;2.17;;;11.70;99.90;;;;;;4929556;29;20090;-93
2023/10/19 02:53:42;;;;;;;3.10;1.95;;;11.70;99.90;;;;;;4912098;29;20024;-89
2023/10/19 02:56:16;;;;;;;4.35;3.22;;;11.80;99.90;;;;;;4914189;29;20032;-90
2023/10/19 02:58:48;;;;;;;4.00;2.05;;;11.80;99.90;;;;;;4925745;29;20047;-90
2023/10/19 03:01:24;;;;;;;3.00;1.85;;;11.80;99.90;;;;;;4930892;29;20164;-91
2023/10/19 03:03:53;;;;;;;4.13;2.67;;;11.80;99.90;;;;;;4931743;29;20413;-91
2023/10/19 03:06:23;;;;;;;2.57;1.80;;;11.90;99.90;;;;;;4924032;29;20444;-89
2023/10/19 03:08:57;;;;;;;3.60;2.10;;;11.90;99.90;;;;;;4928531;29;20483;-91
2023/10/19 03:11:27;;;;;;;3.47;2.10;;;11.90;99.90;;;;;;4928462;29;20385;-88
2023/10/19 03:13:53;;;;;;;5.03;2.53;;;11.90;99.90;;;;;;4927794;29;20416;-90
2023/10/19 03:16:20;;;;;;;2.08;1.40;;;11.90;99.90;;;;;;4909975;29;20176;-90
2023/10/19 03:18:47;;;;;;;2.00;0.98;;;12.00;99.90;;;;;;4913417;29;20400;-90
2023/10/19 03:21:13;;;;;;;3.95;1.30;;;12.00;99.90;;;;;;4929858;29;20051;-91
2023/10/19 03:23:40;;;;;;;1.95;0.90;;;12.10;99.90;;;;;;4926769;29;20032;-91
2023/10/19 03:26:30;;;;;;;2.05;1.00;;;12.10;99.90;;;;;;4926833;29;20115;-89
2023/10/19 03:29:02;;;;;;;2.53;0.82;;;12.20;99.90;;;;;;4928548;29;20032;-89
2023/10/19 03:31:28;;;;;;;2.95;1.30;;;12.30;99.90;;;;;;4930483;29;20043;-92
2023/10/19 03:33:54;;;;;;;3.47;1.35;;;12.30;99.90;;;;;;4910494;29;20303;-89
2023/10/19 03:36:24;;;;;;;2.40;1.20;;;12.40;99.90;;;;;;4927316;29;20031;-91
2023/10/19 03:38:51;;;;;;;;;;;12.30;99.90;;;;;;4938670;29;20037;-90
2023/10/19 03:41:21;;;;;;;1.88;0.70;;;12.40;99.90;;;;;;4927273;29;19919;-90
2023/10/19 03:43:51;;;;;;;1.83;0.90;;;12.50;99.90;;;;;;4911834;29;20025;-90
2023/10/19 03:46:31;;;;;;;1.42;0.57;;;12.50;99.90;;;;;;4914839;29;20047;-90
2023/10/19 03:48:59;;;;;;;1.10;0.60;;;12.60;99.90;;;;;;4898190;29;20536;-90
2023/10/19 03:51:39;;;;;;;1.17;0.50;;;12.60;99.90;;;;;;4922660;29;20039;-90
2023/10/19 03:54:20;;;;;;;1.60;0.65;;;12.50;99.90;;;;;;4930151;29;20031;-90
2023/10/19 03:56:47;;;;;;;0.98;0.45;;;12.50;99.90;;;;;;4925156;29;20449;-92
2023/10/19 03:59:13;;;;;;;1.25;0.50;;;12.50;99.90;;;;;;4924998;29;20106;-91
2023/10/19 04:01:39;;;;;;;1.15;0.50;;;12.50;99.90;;;;;;4914811;29;20091;-91
2023/10/19 04:04:05;;;;;;;2.78;0.63;;;12.50;99.90;;;;;;4928892;29;20028;-90
2023/10/19 04:06:31;;;;;;;1.20;0.60;;;12.60;99.90;;;;;;4928849;29;20077;-91
2023/10/19 04:08:56;;;;;;;1.83;0.50;;;12.50;99.90;;;;;;4896076;29;20413;-89
2023/10/19 04:11:22;;;;;;;2.03;0.70;;;12.50;99.90;;;;;;4929860;29;20028;-91
2023/10/19 04:13:56;;;;;;;1.45;0.65;;;12.50;99.90;;;;;;4925807;29;20031;-91
2023/10/19 04:16:21;;;;;;;1.50;0.60;;;12.40;99.90;;;;;;4925124;29;20036;-92
2023/10/19 04:18:48;;;;;;;2.03;0.70;;;12.40;99.90;;;;;;4926410;29;20035;-90
2023/10/19 04:21:14;;;;;;;1.70;0.65;;;12.30;99.90;;;;;;4930610;29;20065;-91
2023/10/19 04:23:40;;;;;;;1.85;0.80;;;12.30;99.90;;;;;;4926978;29;20416;-91
2023/10/19 04:26:12;;;;;;;2.25;1.35;;;12.30;99.90;;;;;;4925443;29;20091;-90
2023/10/19 04:28:44;;;;;;;2.35;0.90;;;12.30;99.90;;;;;;4925120;29;20032;-90
2023/10/19 04:31:14;;;;;;;3.00;0.73;;;12.30;99.90;;;;;;4913322;29;20118;-90
2023/10/19 04:33:42;;;;;;;1.83;0.82;;;12.20;99.90;;;;;;4927773;29;20023;-91
2023/10/19 04:36:11;;;;;;;2.15;1.10;;;12.30;99.90;;;;;;4911289;29;20062;-91
2023/10/19 04:38:37;;;;;;;2.95;1.42;;;12.30;99.90;;;;;;4927444;29;20028;-90
2023/10/19 04:41:10;;;;;;;2.28;1.38;;;12.30;99.90;;;;;;4909577;29;20047;-91
2023/10/19 04:43:38;;;;;;;1.80;1.00;;;12.30;99.90;;;;;;4928015;29;20039;-91
2023/10/19 04:46:08;;;;;;;2.63;1.35;;;12.30;99.90;;;;;;4927274;29;20035;-91
2023/10/19 04:48:35;;;;;;;1.67;1.00;;;12.30;99.90;;;;;;4925013;29;20103;-91
2023/10/19 04:51:03;;;;;;;2.38;1.08;;;12.30;99.90;;;;;;4909887;29;20044;-92
2023/10/19 04:53:31;;;;;;;2.00;0.90;;;12.30;99.90;;;;;;4912238;29;20028;-91
2023/10/19 04:55:57;;;;;;;2.40;1.25;;;12.30;99.90;;;;;;4911953;29;20028;-91
2023/10/19 04:58:23;;;;;;;1.70;1.08;;;12.30;99.90;;;;;;4926863;29;20138;-91
2023/10/19 05:00:49;;;;;;;2.10;0.90;;;12.40;99.90;;;;;;4910780;29;20130;-93
2023/10/19 05:03:18;;;;;;;1.98;0.80;;;12.30;99.90;;;;;;4926355;29;20039;-91
2023/10/19 05:05:44;;;;;;;2.10;1.00;;;12.40;99.90;;;;;;4937523;29;20032;-92
2023/10/19 05:08:10;;;;;;;1.88;0.90;;;12.40;99.90;;;;;;4928710;29;20824;-92
2023/10/19 05:10:37;;;;;;;2.25;0.80;;;12.40;99.90;;;;;;4922524;29;20032;-91
2023/10/19 05:13:03;;;;;;;3.72;0.90;;;12.40;99.90;;;;;;4928302;29;20039;-91
2023/10/19 05:15:29;;;;;;;2.60;0.70;;;12.40;99.90;;;;;;4927402;29;20066;-92
2023/10/19 05:17:55;;;;;;;1.73;0.73;;;12.40;99.90;;;;;;4908547;29;20062;-92
2023/10/19 05:20:21;;;;;;;1.77;0.80;;;12.40;99.90;;;;;;4911627;29;20044;-91
2023/10/19 05:22:47;;;;;;;1.50;0.80;;;12.40;99.90;;;;;;4926861;29;20023;-91
2023/10/19 05:25:13;;;;;;;1.60;0.65;;;12.40;99.90;;;;;;4908846;29;20058;-92
2023/10/19 05:27:39;;;;;;;1.80;0.60;;;12.30;99.90;;;;;;4935708;29;20063;-91
2023/10/19 05:30:07;;;;;;;1.50;0.70;;;12.30;99.90;;;;;;4912134;29;20038;-92
2023/10/19 05:32:33;;;;;;;1.48;0.75;;;12.20;99.90;;;;;;4930000;29;20055;-92
2023/10/19 05:35:04;;;;;;;1.90;0.80;;;12.20;99.90;;;;;;4930065;29;20051;-91
2023/10/19 05:37:30;;;;;;;1.70;0.70;;;12.20;99.90;;;;;;4916322;29;20020;-91
2023/10/19 05:39:56;;;;;;;3.72;1.33;;;12.20;99.90;;;;;;4928309;29;20472;-92
2023/10/19 05:42:22;;;;;;;8.85;3.08;;;12.20;99.90;;;;;;4927587;29;20102;-91
2023/10/19 05:44:47;;;;;;;12.57;4.47;;;12.20;99.90;;;;;;4914442;29;20427;-91
2023/10/19 05:47:13;;;;;;;14.38;4.85;;;12.20;99.90;;;;;;4938947;29;20042;-91
2023/10/19 05:49:39;;;;;;;14.23;4.55;;;12.30;99.90;;;;;;4933667;29;20110;-92
2023/10/19 05:52:04;;;;;;;8.52;4.07;;;12.20;99.90;;;;;;4929637;29;20039;-91
2023/10/19 05:54:30;;;;;;;7.55;2.85;;;12.30;99.90;;;;;;4931527;29;20015;-90
2023/10/19 05:56:58;;;;;;;5.88;2.53;;;12.30;99.90;;;;;;4913892;29;20130;-91
2023/10/19 05:59:26;;;;;;;5.28;1.58;;;12.30;99.90;;;;;;4923415;29;20384;-91
2023/10/19 06:01:52;;;;;;;4.03;1.52;;;12.30;99.90;;;;;;4939866;29;20043;-91
2023/10/19 06:04:18;;;;;;;3.38;1.20;;;12.40;99.90;;;;;;4928775;29;20071;-91
2023/10/19 06:06:43;;;;;;;2.40;0.88;;;12.40;99.90;;;;;;4914598;29;20439;-91
2023/10/19 06:09:09;;;;;;;2.35;0.70;;;12.40;99.90;;;;;;4914424;29;20031;-91
2023/10/19 06:11:37;;;;;;;2.95;0.60;;;12.40;99.90;;;;;;4932086;29;20080;-92
2023/10/19 06:14:07;;;;;;;2.13;0.40;;;12.50;99.90;;;;;;4906123;29;20024;-91
2023/10/19 06:16:36;;;;;;;1.10;0.38;;;12.60;99.90;;;;;;4930778;29;20036;-92
2023/10/19 06:19:02;;;;;;;1.02;0.30;;;12.60;99.90;;;;;;4931944;29;20034;-91
2023/10/19 06:21:30;;;;;;;0.98;0.30;;;12.70;99.90;;;;;;4927745;29;20035;-91
2023/10/19 06:23:55;;;;;;;0.73;0.30;;;12.80;99.90;;;;;;4927757;29;20099;-91
2023/10/19 06:26:21;;;;;;;1.65;0.30;;;12.90;99.90;;;;;;4938448;29;20486;-92
2023/10/19 06:28:47;;;;;;;1.00;0.20;;;12.90;99.90;;;;;;4914774;29;20023;-91
2023/10/19 06:31:14;;;;;;;0.60;0.10;;;13.10;99.90;;;;;;4913856;29;20045;-92
2023/10/19 06:33:41;;;;;;;0.77;0.20;;;13.10;99.90;;;;;;4940773;29;20103;-91
2023/10/19 06:36:07;;;;;;;0.52;0.20;;;13.20;99.90;;;;;;4929865;29;20040;-91
2023/10/19 06:38:33;;;;;;;2.90;0.30;;;13.10;99.90;;;;;;4938048;29;20039;-92
2023/10/19 06:41:11;;;;;;;1.15;0.20;;;13.20;99.90;;;;;;4912856;29;20036;-92
2023/10/19 06:43:38;;;;;;;2.20;0.10;;;13.20;99.90;;;;;;4927589;29;20071;-91
2023/10/19 06:46:04;;;;;;;0.77;0.10;;;13.30;99.90;;;;;;4927828;29;20060;-91
2023/10/19 06:48:30;;;;;;;0.38;0.10;;;13.30;99.90;;;;;;4929394;29;20488;-92
2023/10/19 06:50:57;;;;;;;1.17;0.10;;;13.30;99.90;;;;;;4927548;29;20042;-92
2023/10/19 06:53:22;;;;;;;0.75;0.10;;;13.40;99.90;;;;;;4911084;29;20428;-92
2023/10/19 06:55:48;;;;;;;2.45;0.20;;;13.40;99.90;;;;;;4912961;29;20135;-91
2023/10/19 06:58:19;;;;;;;2.15;0.10;;;13.40;99.90;;;;;;4926089;29;20039;-90
2023/10/19 07:00:45;;;;;;;0.85;0.10;;;13.50;99.90;;;;;;4929391;29;20044;-92
2023/10/19 07:03:11;;;;;;;0.70;0.10;;;13.50;99.90;;;;;;4922886;29;20031;-91
2023/10/19 07:05:37;;;;;;;0.60;0.10;;;13.50;99.90;;;;;;4923778;29;20032;-91
2023/10/19 07:08:06;;;;;;;1.27;0.10;;;13.50;99.90;;;;;;4927427;29;20031;-93
2023/10/19 07:10:34;;;;;;;1.58;0.15;;;13.50;99.90;;;;;;4927720;29;20031;-92
2023/10/19 07:13:00;;;;;;;1.30;0.30;;;13.50;99.90;;;;;;4911919;29;20039;-93
2023/10/19 07:15:26;;;;;;;1.02;0.10;;;13.50;99.90;;;;;;4898777;29;20027;-92
2023/10/19 07:17:54;;;;;;;1.27;0.10;;;13.60;99.90;;;;;;4927926;29;20035;-91
2023/10/19 07:20:32;;;;;;;1.40;0.20;;;13.60;99.90;;;;;;4927619;29;20048;-91
2023/10/19 07:23:26;;;;;;;1.52;0.10;;;13.70;99.90;;;;;;4927719;29;20046;-88
2023/10/19 07:25:54;;;;;;;0.30;0.10;;;13.70;99.90;;;;;;4925579;29;20146;-89
2023/10/19 07:28:21;;;;;;;1.17;0.10;;;13.70;99.90;;;;;;4912667;29;20032;-87
2023/10/19 07:30:47;;;;;;;0.80;0.00;;;13.70;99.90;;;;;;4928183;29;20144;-88
2023/10/19 07:33:17;;;;;;;0.68;0.10;;;13.70;99.90;;;;;;4925502;29;20024;-90
2023/10/19 07:35:43;;;;;;;1.30;0.10;;;13.70;99.90;;;;;;4911811;29;20104;-88
2023/10/19 07:38:10;;;;;;;0.40;0.10;;;13.80;99.90;;;;;;4912370;29;20035;-88
2023/10/19 07:40:36;;;;;;;0.60;0.10;;;13.80;99.90;;;;;;4912235;29;20067;-88
2023/10/19 07:43:03;;;;;;;0.68;0.10;;;13.80;99.90;;;;;;4908866;29;20501;-88
2023/10/19 07:45:31;;;;;;;1.55;0.10;;;13.90;99.90;;;;;;4925115;29;20032;-89
2023/10/19 07:47:57;;;;;;;0.65;0.10;;;13.90;99.90;;;;;;4912417;29;20172;-89
2023/10/19 07:50:23;;;;;;;1.48;0.13;;;13.90;99.90;;;;;;4927301;29;20103;-88
2023/10/19 07:52:53;;;;;;;1.25;0.10;;;13.90;99.90;;;;;;4926901;29;20024;-91
2023/10/19 07:55:25;;;;;;;0.63;0.10;;;14.00;99.90;;;;;;4926751;29;20042;-92
2023/10/19 07:57:51;;;;;;;0.63;0.10;;;14.00;99.90;;;;;;4930518;29;20227;-92
2023/10/19 08:00:18;;;;;;;0.40;0.10;;;14.10;99.90;;;;;;4929111;29;20309;-92
2023/10/19 08:02:47;;;;;;;1.15;0.20;;;14.10;99.90;;;;;;4922876;29;20028;-93
2023/10/19 08:05:14;;;;;;;0.90;0.10;;;14.10;99.90;;;;;;4928317;29;20540;-92
2023/10/19 08:07:42;;;;;;;0.75;0.10;;;14.20;99.90;;;;;;4912875;29;20106;-93
2023/10/19 08:10:10;;;;;;;1.85;0.10;;;14.20;99.90;;;;;;4929435;29;20060;-92
2023/10/19 08:12:36;;;;;;;0.50;0.10;;;14.20;99.90;;;;;;4925834;29;20453;-92
2023/10/19 08:15:03;;;;;;;0.70;0.10;;;14.20;99.90;;;;;;4928723;29;20078;-92
2023/10/19 08:17:30;;;;;;;1.85;0.20;;;14.20;99.90;;;;;;4923715;29;20035;-92
2023/10/19 08:19:56;;;;;;;1.52;0.10;;;14.20;99.90;;;;;;4927523;29;20052;-93
2023/10/19 08:22:23;;;;;;;0.95;0.10;;;14.20;99.90;;;;;;4935043;29;20035;-91
2023/10/19 08:24:49;;;;;;;0.88;0.17;;;14.20;99.90;;;;;;4926249;29;20036;-92
2023/10/19 08:27:17;;;;;;;2.15;0.25;;;14.30;99.90;;;;;;4930964;29;20047;-92
2023/10/19 08:29:43;;;;;;;0.57;0.15;;;14.40;99.90;;;;;;4894928;29;20045;-91
2023/10/19 08:32:09;;;;;;;1.85;0.20;;;14.30;99.90;;;;;;4926134;29;20035;-92
2023/10/19 08:34:36;;;;;;;1.60;0.20;;;14.40;99.90;;;;;;4907653;29;20118;-91
2023/10/19 08:37:04;;;;;;;1.33;0.20;;;14.40;99.90;;;;;;4929164;29;20040;-93
2023/10/19 08:39:36;;;;;;;1.27;0.10;;;14.40;99.90;;;;;;4925643;29;20118;-91
2023/10/19 08:42:05;;;;;;;2.45;0.10;;;14.50;99.90;;;;;;4910960;29;20042;-92
2023/10/19 08:44:32;;;;;;;2.38;0.10;;;14.50;99.90;;;;;;4926132;29;20026;-92
2023/10/19 08:46:59;;;;;;;0.80;0.10;;;14.50;99.90;;;;;;4929340;29;20618;-93
2023/10/19 08:49:26;;;;;;;0.98;0.35;;;14.60;99.90;;;;;;4907253;29;20042;-92
2023/10/19 08:51:53;;;;;;;0.98;0.10;;;14.70;99.90;;;;;;4923937;29;20016;-92
2023/10/19 08:54:19;;;;;;;1.95;0.20;;;14.70;99.90;;;;;;4927161;29;20040;-93
2023/10/19 08:56:47;;;;;;;0.82;0.10;;;14.80;99.90;;;;;;4927596;29;20385;-92
2023/10/19 08:59:15;;;;;;;1.33;0.10;;;14.80;99.90;;;;;;4927620;29;20027;-92
2023/10/19 09:01:44;;;;;;;1.23;0.10;;;15.00;99.90;;;;;;4923833;29;20489;-93
2023/10/19 09:04:11;;;;;;;1.02;0.10;;;15.10;99.90;;;;;;4913082;29;20023;-91
2023/10/19 09:06:44;;;;;;;1.02;0.28;;;15.30;99.90;;;;;;4923690;29;20040;-91
2023/10/19 09:09:25;;;;;;;1.52;0.10;;;15.30;99.90;;;;;;4923892;29;20500;-91
2023/10/19 09:11:53;;;;;;;1.45;0.17;;;15.30;99.90;;;;;;4925981;29;20067;-91
2023/10/19 09:14:33;;;;;;;1.60;0.10;;;15.40;99.90;;;;;;4906892;29;20556;-92
2023/10/19 09:17:00;;;;;;;0.75;0.10;;;15.40;99.90;;;;;;4927007;29;20327;-91
2023/10/19 09:19:36;;;;;;;1.42;0.20;;;15.40;99.90;;;;;;4910141;29;20087;-92
2023/10/19 09:22:07;;;;;;;0.45;0.10;;;15.40;99.90;;;;;;4929097;29;20110;-92
2023/10/19 09:24:35;;;;;;;1.02;0.10;;;15.40;99.90;;;;;;4911087;29;20055;-92
2023/10/19 09:27:02;;;;;;;0.85;0.10;;;15.30;99.90;;;;;;4927231;29;20064;-92
2023/10/19 09:29:28;;;;;;;0.70;0.20;;;15.30;99.90;;;;;;4927124;29;20032;-92
2023/10/19 09:31:58;;;;;;;0.70;0.10;;;15.30;99.90;;;;;;4910350;29;20111;-92
2023/10/19 09:34:31;;;;;;;0.85;0.10;;;15.30;99.90;;;;;;4928347;29;20028;-92
2023/10/19 09:37:00;;;;;;;0.35;0.10;;;15.30;99.90;;;;;;4925581;29;20091;-92
2023/10/19 09:39:34;;;;;;;0.93;0.10;;;15.40;99.90;;;;;;4924020;29;20480;-92
2023/10/19 09:42:05;;;;;;;0.75;0.15;;;15.40;99.90;;;;;;4925595;29;20047;-92
2023/10/19 09:44:38;;;;;;;1.67;0.20;;;15.40;99.90;;;;;;4925425;29;20028;-92
2023/10/19 09:47:12;;;;;;;2.28;0.20;;;15.50;99.90;;;;;;4910171;29;20037;-91
2023/10/19 09:49:38;;;;;;;0.50;0.20;;;15.70;99.90;;;;;;4922268;29;20119;-92
2023/10/19 09:52:07;;;;;;;1.25;0.40;;;15.90;99.90;;;;;;4926619;29;20023;-92
2023/10/19 09:54:49;;;;;;;1.70;0.30;;;16.00;99.90;;;;;;4925923;29;20024;-91
2023/10/19 09:57:24;;;;;;;0.63;0.20;;;16.10;99.90;;;;;;4909233;29;20138;-91
2023/10/19 09:59:58;;;;;;;0.60;0.20;;;16.20;99.90;;;;;;4927195;29;20047;-90
2023/10/19 10:02:27;;;;;;;1.15;0.20;;;16.30;99.90;;;;;;4923882;29;20039;-91
2023/10/19 10:04:52;;;;;;;1.73;0.20;;;16.20;99.90;;;;;;4908595;29;20050;-90
2023/10/19 10:07:18;;;;;;;0.73;0.20;;;16.40;99.90;;;;;;4928739;29;20091;-92
2023/10/19 10:09:45;;;;;;;2.78;0.30;;;16.50;99.90;;;;;;4926377;29;20083;-90
2023/10/19 10:12:25;;;;;;;1.92;0.20;;;16.40;99.90;;;;;;4924494;29;20046;-93
2023/10/19 10:15:01;;;;;;;;;;;16.50;99.90;;;;;;4929094;29;20071;-92
2023/10/19 10:17:27;;;;;;;1.58;0.20;;;16.50;99.90;;;;;;4929221;29;19933;-91
2023/10/19 10:20:19;;;;;;;0.70;0.15;;;16.70;99.90;;;;;;4927308;29;20023;-91
2023/10/19 10:23:05;;;;;;;2.78;0.20;;;16.90;99.90;;;;;;4917446;29;20150;-91
2023/10/19 10:25:34;;;;;;;0.75;0.20;;;17.00;99.90;;;;;;4912513;29;20028;-92
2023/10/19 10:28:02;;;;;;;2.83;0.30;;;17.00;99.90;;;;;;4926874;29;20087;-91
2023/10/19 10:30:28;;;;;;;1.77;0.20;;;17.00;99.90;;;;;;4928632;29;20044;-92
2023/10/19 10:32:59;;;;;;;1.05;0.20;;;17.10;99.90;;;;;;4908775;29;20028;-91
2023/10/19 10:35:37;;;;;;;0.57;0.10;;;17.10;99.90;;;;;;4914520;29;20035;-92
2023/10/19 10:38:12;;;;;;;1.10;0.20;;;17.20;99.90;;;;;;4930622;29;20035;-91
2023/10/19 10:40:44;;;;;;;3.38;0.20;;;17.40;99.90;;;;;;4930290;29;20464;-92
2023/10/19 10:43:11;;;;;;;3.30;0.30;;;17.50;99.90;;;;;;4929741;29;20020;-92
2023/10/19 10:45:37;;;;;;;0.88;0.13;;;17.80;99.90;;;;;;4895290;29;20043;-92
2023/10/19 10:48:03;;;;;;;1.83;0.20;;;17.90;99.90;;;;;;4940694;29;20031;-91
2023/10/19 10:50:29;;;;;;;0.85;0.10;;;17.80;99.90;;;;;;4928450;29;20043;-91
2023/10/19 10:52:57;;;;;;;1.75;0.20;;;17.80;99.90;;;;;;4931583;29;20036;-91
2023/10/19 10:55:25;;;;;;;1.25;0.20;;;17.90;99.90;;;;;;4910350;29;20122;-92
2023/10/19 10:57:51;;;;;;;1.48;0.20;;;17.80;99.90;;;;;;4914497;29;20050;-91
2023/10/19 11:00:20;;;;;;;1.67;0.20;;;17.80;99.90;;;;;;4927698;29;20384;-91
2023/10/19 11:02:58;;;;;;;0.50;0.10;;;17.60;99.90;;;;;;4928062;29;20319;-92
2023/10/19 11:05:24;;;;;;;1.15;0.20;;;17.70;99.90;;;;;;4927502;29;20280;-92
2023/10/19 11:08:13;;;;;;;0.98;0.20;;;17.70;99.90;;;;;;4914913;29;20044;-91
2023/10/19 11:10:39;;;;;;;2.13;0.20;;;17.60;99.90;;;;;;4928646;29;20047;-92
2023/10/19 11:13:10;;;;;;;1.17;0.17;;;17.60;99.90;;;;;;4927625;29;20035;-92
2023/10/19 11:15:48;;;;;;;1.75;0.20;;;17.50;99.90;;;;;;4928074;29;20040;-91
2023/10/19 11:18:29;;;;;;;3.20;0.20;;;17.40;99.90;;;;;;4922894;29;20373;-92
2023/10/19 11:20:55;;;;;;;1.00;0.20;;;17.50;99.90;;;;;;4928212;29;20047;-91
2023/10/19 11:23:35;;;;;;;1.73;0.20;;;17.70;99.90;;;;;;4929140;29;20408;-92
2023/10/19 11:26:02;;;;;;;3.40;0.25;;;17.60;99.90;;;;;;4927251;29;20031;-90
2023/10/19 11:28:32;;;;;;;0.80;0.20;;;17.60;99.90;;;;;;4928938;29;20409;-91
2023/10/19 11:31:11;;;;;;;1.02;0.20;;;17.70;99.90;;;;;;4928827;29;20054;-92
2023/10/19 11:33:37;;;;;;;1.17;0.20;;;17.90;99.90;;;;;;4925726;29;20038;-91
2023/10/19 11:36:05;;;;;;;1.08;0.10;;;18.10;99.90;;;;;;4928806;29;20040;-92
2023/10/19 11:38:30;;;;;;;1.48;0.20;;;18.20;99.90;;;;;;4929532;29;20054;-91
2023/10/19 11:40:57;;;;;;;2.92;0.30;;;18.30;99.90;;;;;;4908513;29;20032;-90
2023/10/19 11:43:23;;;;;;;1.35;0.20;;;18.40;99.90;;;;;;4910234;29;20396;-91
2023/10/19 11:45:49;;;;;;;0.85;0.10;;;18.60;99.90;;;;;;4927974;29;20043;-91
2023/10/19 11:48:15;;;;;;;0.88;0.10;;;18.50;99.90;;;;;;4929839;29;20020;-93
2023/10/19 11:50:41;;;;;;;2.00;0.20;;;18.30;99.90;;;;;;4931338;29;20047;-91
2023/10/19 11:53:09;;;;;;;1.67;0.22;;;18.30;99.90;;;;;;4911432;29;20027;-92
2023/10/19 11:55:35;;;;;;;0.63;0.20;;;18.30;99.90;;;;;;4926907;29;20044;-91
2023/10/19 11:58:01;;;;;;;1.65;0.20;;;18.20;99.90;;;;;;4909769;29;20050;-93
2023/10/19 12:00:33;;;;;;;0.88;0.22;;;18.20;99.90;;;;;;4922052;29;20081;-91
2023/10/19 12:02:59;;;;;;;0.88;0.20;;;18.20;99.90;;;;;;4912138;29;20481;-92
2023/10/19 12:05:25;;;;;;;1.88;0.20;;;18.20;99.90;;;;;;4910574;29;20039;-91
2023/10/19 12:07:51;;;;;;;1.45;0.20;;;18.20;99.90;;;;;;4927760;29;20059;-91
2023/10/19 12:10:20;;;;;;;1.90;0.30;;;18.10;99.90;;;;;;4930402;29;20118;-90
2023/10/19 12:12:46;;;;;;;2.42;0.30;;;18.00;99.90;;;;;;4911663;29;20039;-91
2023/10/19 12:15:12;;;;;;;1.25;0.20;;;17.80;99.90;;;;;;4911358;29;20027;-93
2023/10/19 12:17:38;;;;;;;1.13;0.10;;;17.80;99.90;;;;;;4896514;29;20271;-90
2023/10/19 12:20:06;;;;;;;1.35;0.20;;;18.00;99.90;;;;;;4908817;29;20302;-92
2023/10/19 12:22:37;;;;;;;1.90;0.20;;;18.20;99.90;;;;;;4910002;29;20126;-91
2023/10/19 12:25:05;;;;;;;0.90;0.20;;;18.50;99.90;;;;;;4913804;29;20046;-91
2023/10/19 12:27:30;;;;;;;2.25;0.20;;;18.80;99.90;;;;;;4929363;29;20073;-92
2023/10/19 12:29:56;;;;;;;3.63;0.20;;;18.80;99.90;;;;;;4911232;29;20461;-91
2023/10/19 12:32:24;;;;;;;1.33;0.20;;;18.60;99.90;;;;;;4930776;29;20031;-91
2023/10/19 12:35:03;;;;;;;0.95;0.20;;;18.50;99.90;;;;;;4927473;29;20078;-92
2023/10/19 12:37:29;;;;;;;0.93;0.20;;;18.40;99.90;;;;;;4923747;29;20412;-91
2023/10/19 12:39:55;;;;;;;1.83;0.20;;;18.30;99.90;;;;;;4928984;29;20381;-92
2023/10/19 12:42:22;;;;;;;1.75;0.20;;;18.10;99.90;;;;;;4923083;29;20036;-92
2023/10/19 12:44:48;;;;;;;2.58;0.20;;;18.10;99.90;;;;;;4916053;29;20043;-92
2023/10/19 12:47:15;;;;;;;1.90;0.20;;;18.00;99.90;;;;;;4910641;29;20031;-91
2023/10/19 12:49:41;;;;;;;0.50;0.10;;;18.00;99.90;;;;;;4911665;29;20095;-91
2023/10/19 12:52:10;;;;;;;1.52;0.22;;;18.00;99.90;;;;;;4927873;29;20241;-91
2023/10/19 12:54:37;;;;;;;2.08;0.20;;;17.90;99.90;;;;;;4927170;29;20040;-91
2023/10/19 12:57:09;;;;;;;1.17;0.20;;;17.80;99.90;;;;;;4925496;29;20059;-91
2023/10/19 12:59:39;;;;;;;1.00;0.20;;;17.80;99.90;;;;;;4926287;29;20155;-92
2023/10/19 13:02:08;;;;;;;2.50;0.20;;;17.80;99.90;;;;;;4922118;29;20028;-92
2023/10/19 13:04:34;;;;;;;2.10;0.20;;;17.70;99.90;;;;;;4895753;29;20539;-92
2023/10/19 13:07:00;;;;;;;0.68;0.20;;;17.70;99.90;;;;;;4921996;29;20032;-92
2023/10/19 13:09:32;;;;;;;1.52;0.30;;;17.60;99.90;;;;;;4927268;29;20040;-91
2023/10/19 13:11:59;;;;;;;1.13;0.25;;;17.60;99.90;;;;;;4923233;29;20032;-91
2023/10/19 13:14:25;;;;;;;1.45;0.30;;;17.70;99.90;;;;;;4910097;29;20031;-91